Time;durP1;ratioP1;P1;durP2;ratioP2;P2;SDS_P1;SDS_P2;PMS_P1;PMS_P2;Temp;Humidity;BMP_temperature;BMP_pressure;BME280_temperature;BME280_humidity;BME280_pressure;Samples;Min_cycle;Max_cycle;Signal;HPM_P1;HPM_P2
2021/07/27 00:01:29;;;;;;;49.17;34.53;;;18.10;95.30;;;;;;5039619;28;20410;-48
2021/07/27 00:03:55;;;;;;;51.55;34.67;;;18.20;95.30;;;;;;5040717;28;20052;-49
2021/07/27 00:06:21;;;;;;;52.28;34.33;;;18.20;95.30;;;;;;5030315;28;20072;-53
2021/07/27 00:08:47;;;;;;;50.50;35.25;;;18.20;95.40;;;;;;5043727;28;20044;-52
2021/07/27 00:11:12;;;;;;;52.97;35.13;;;18.20;95.50;;;;;;5046705;28;20543;-49
2021/07/27 00:13:42;;;;;;;50.72;35.85;;;18.20;95.50;;;;;;5044050;28;20041;-49
2021/07/27 00:16:07;;;;;;;56.55;38.22;;;18.20;95.50;;;;;;5033780;28;20053;-49
2021/07/27 00:18:33;;;;;;;54.50;36.15;;;18.20;95.60;;;;;;5035550;28;20525;-49
2021/07/27 00:21:01;;;;;;;57.85;36.92;;;18.20;95.60;;;;;;5033964;28;20044;-48
2021/07/27 00:23:26;;;;;;;58.13;36.83;;;18.20;95.80;;;;;;5046073;28;20051;-48
2021/07/27 00:25:53;;;;;;;56.30;36.55;;;18.20;95.80;;;;;;5032935;28;20100;-49
2021/07/27 00:28:18;;;;;;;53.20;34.80;;;18.20;95.80;;;;;;5031090;28;20041;-48
2021/07/27 00:30:44;;;;;;;54.50;35.20;;;18.20;95.70;;;;;;5032047;28;20044;-48
2021/07/27 00:33:10;;;;;;;53.78;35.97;;;18.10;95.70;;;;;;5033612;28;20045;-48
2021/07/27 00:35:35;;;;;;;55.83;35.50;;;18.10;95.80;;;;;;5032699;28;20494;-52
2021/07/27 00:38:12;;;;;;;57.58;36.33;;;18.20;95.80;;;;;;5037050;28;20044;-50
2021/07/27 00:40:40;;;;;;;50.45;35.42;;;18.20;95.90;;;;;;5036200;28;20041;-49
2021/07/27 00:43:10;;;;;;;53.75;35.42;;;18.20;95.90;;;;;;5041759;28;20037;-51
2021/07/27 00:45:36;;;;;;;45.38;32.55;;;18.20;95.90;;;;;;5039559;28;20743;-51
2021/07/27 00:48:04;;;;;;;52.40;33.75;;;18.10;95.90;;;;;;5035513;28;20049;-51
2021/07/27 00:50:30;;;;;;;49.60;33.55;;;18.20;96.00;;;;;;5035803;28;20516;-51
2021/07/27 00:52:58;;;;;;;49.25;33.60;;;18.20;96.00;;;;;;5038466;28;20780;-51
2021/07/27 00:55:28;;;;;;;46.67;31.25;;;18.10;96.00;;;;;;5052730;28;20071;-50
2021/07/27 00:57:54;;;;;;;46.28;32.30;;;18.10;96.10;;;;;;5040132;28;20131;-49
2021/07/27 01:00:20;;;;;;;41.65;28.38;;;18.10;96.00;;;;;;5054069;28;20045;-49
2021/07/27 01:02:46;;;;;;;49.00;31.13;;;18.10;96.10;;;;;;5037777;28;20065;-49
2021/07/27 01:05:12;;;;;;;44.90;30.40;;;18.10;96.10;;;;;;5038513;28;20086;-51
2021/07/27 01:07:38;;;;;;;48.45;32.10;;;18.10;96.10;;;;;;5051583;28;20108;-50
2021/07/27 01:10:05;;;;;;;43.42;29.27;;;18.10;96.10;;;;;;5034346;28;20449;-52
2021/07/27 01:12:32;;;;;;;48.50;31.40;;;18.10;96.10;;;;;;5041140;28;20041;-50
2021/07/27 01:14:59;;;;;;;43.78;31.20;;;18.10;96.10;;;;;;5033516;28;20092;-51
2021/07/27 01:17:24;;;;;;;45.80;31.02;;;18.10;96.10;;;;;;5039726;28;20409;-51
2021/07/27 01:43:53;;;;;;;49.33;31.50;;;18.10;96.10;;;;;;5040601;28;20120;-49
2021/07/27 01:46:23;;;;;;;50.17;31.55;;;18.10;96.10;;;;;;5029227;28;20037;-49
2021/07/27 01:48:50;;;;;;;48.10;31.67;;;18.10;96.20;;;;;;5050310;28;20123;-52
2021/07/27 01:51:19;;;;;;;45.88;30.63;;;18.10;96.20;;;;;;5046279;28;20075;-48
2021/07/27 01:53:49;;;;;;;43.80;29.10;;;18.10;96.20;;;;;;5036348;28;20404;-48
2021/07/27 01:56:20;;;;;;;53.15;32.80;;;18.10;96.20;;;;;;5046217;28;20049;-51
2021/07/27 01:58:47;;;;;;;50.78;32.30;;;18.20;96.30;;;;;;5044664;28;20051;-50
2021/07/27 02:01:13;;;;;;;51.53;32.22;;;18.10;96.20;;;;;;5031741;28;20099;-48
2021/07/27 02:03:38;;;;;;;50.22;32.05;;;18.10;96.20;;;;;;5036219;28;20072;-48
2021/07/27 02:06:04;;;;;;;53.90;33.45;;;18.10;96.30;;;;;;5040538;28;20045;-49
2021/07/27 02:08:30;;;;;;;51.92;32.60;;;18.10;96.30;;;;;;5046651;28;20649;-50
2021/07/27 02:11:02;;;;;;;49.75;31.55;;;18.10;96.30;;;;;;5047038;28;20088;-51
2021/07/27 02:13:44;;;;;;;50.75;30.88;;;18.10;96.40;;;;;;5037686;28;20041;-52
2021/07/27 02:16:10;;;;;;;54.00;31.40;;;18.10;96.40;;;;;;5040664;28;20406;-50
2021/07/27 02:18:36;;;;;;;48.17;30.25;;;18.10;96.40;;;;;;5034840;28;20033;-50
2021/07/27 02:21:02;;;;;;;49.28;30.30;;;18.10;96.50;;;;;;5054024;28;20033;-48
2021/07/27 02:23:30;;;;;;;51.22;31.52;;;18.10;96.50;;;;;;5038426;28;20049;-50
2021/07/27 02:25:56;;;;;;;51.17;30.52;;;18.10;96.50;;;;;;5040832;28;20033;-51
2021/07/27 02:28:22;;;;;;;50.58;30.95;;;18.10;96.60;;;;;;5054870;28;20056;-51
2021/07/27 02:30:55;;;;;;;53.90;30.85;;;18.10;96.60;;;;;;5045791;28;20042;-50
2021/07/27 02:33:22;;;;;;;46.40;28.75;;;18.10;96.70;;;;;;5047159;28;20052;-51
2021/07/27 02:35:48;;;;;;;52.17;32.10;;;18.10;96.60;;;;;;5030463;28;20049;-54
2021/07/27 02:38:15;;;;;;;53.25;32.00;;;18.20;96.60;;;;;;5040209;28;20029;-54
2021/07/27 02:40:40;;;;;;;49.03;30.50;;;18.20;96.60;;;;;;5046716;28;20121;-53
2021/07/27 02:43:06;;;;;;;50.33;30.27;;;18.20;96.60;;;;;;5051329;28;20560;-50
2021/07/27 02:45:32;;;;;;;49.70;31.13;;;18.20;96.60;;;;;;5050364;28;20048;-50
2021/07/27 02:48:03;;;;;;;48.70;29.85;;;18.20;96.70;;;;;;5036885;28;20042;-52
2021/07/27 02:50:29;;;;;;;51.65;30.65;;;18.20;96.70;;;;;;5051913;28;20041;-52
2021/07/27 02:52:55;;;;;;;50.30;30.15;;;18.20;96.70;;;;;;5048918;28;20039;-52
2021/07/27 02:55:21;;;;;;;49.70;30.60;;;18.20;96.70;;;;;;5040850;28;20037;-52
2021/07/27 02:57:48;;;;;;;51.55;30.20;;;18.20;96.70;;;;;;5039297;28;20053;-52
2021/07/27 03:00:15;;;;;;;51.13;29.75;;;18.20;96.70;;;;;;5052845;28;20128;-53
2021/07/27 03:02:46;;;;;;;52.60;30.88;;;18.20;96.70;;;;;;5014177;28;20050;-53
2021/07/27 03:05:14;;;;;;;46.28;27.90;;;18.20;96.70;;;;;;5034566;28;20091;-53
2021/07/27 03:12:48;;;;;;;46.10;28.17;;;18.20;96.70;;;;;;5038896;28;20045;-50
2021/07/27 03:15:16;;;;;;;48.00;27.83;;;18.20;96.70;;;;;;5041619;28;20037;-52
2021/07/27 03:17:42;;;;;;;47.17;28.65;;;18.20;96.60;;;;;;5045960;28;20132;-49
2021/07/27 03:20:09;;;;;;;44.08;28.42;;;18.20;96.60;;;;;;5037947;28;20955;-50
2021/07/27 03:22:35;;;;;;;46.00;27.73;;;18.20;96.60;;;;;;5054366;28;20148;-51
2021/07/27 03:25:02;;;;;;;44.28;27.08;;;18.10;96.50;;;;;;5054243;28;20132;-53
2021/07/27 03:27:27;;;;;;;40.40;27.15;;;18.10;96.50;;;;;;5042910;28;20118;-54
2021/07/27 03:29:53;;;;;;;42.78;26.95;;;18.20;96.50;;;;;;5047809;28;20441;-54
2021/07/27 03:32:18;;;;;;;47.17;28.15;;;18.10;96.60;;;;;;5040501;28;20048;-50
2021/07/27 03:34:44;;;;;;;42.00;27.50;;;18.10;96.60;;;;;;5054095;28;20036;-52
2021/07/27 03:37:16;;;;;;;43.40;28.25;;;18.10;96.50;;;;;;5053987;28;20037;-53
2021/07/27 03:39:41;;;;;;;;;;;18.10;96.60;;;;;;5047189;28;20065;-52
2021/07/27 03:42:08;;;;;;;41.42;26.38;;;18.10;96.60;;;;;;5048074;28;20385;-54
2021/07/27 03:44:34;;;;;;;42.08;26.77;;;18.10;96.50;;;;;;5043034;28;20041;-53
2021/07/27 03:47:00;;;;;;;42.47;27.48;;;18.10;96.50;;;;;;5039317;28;20527;-54
2021/07/27 03:49:29;;;;;;;41.35;26.75;;;18.00;96.50;;;;;;5037291;28;20041;-54
2021/07/27 03:51:55;;;;;;;37.80;25.75;;;18.00;96.50;;;;;;5053384;28;20137;-54
2021/07/27 03:54:22;;;;;;;42.13;27.05;;;18.00;96.40;;;;;;5052311;28;20086;-53
2021/07/27 03:56:47;;;;;;;41.13;26.60;;;18.00;96.50;;;;;;5047370;28;20464;-54
2021/07/27 03:59:14;;;;;;;36.17;26.23;;;18.00;96.50;;;;;;5045793;28;20029;-54
2021/07/27 04:01:41;;;;;;;38.55;24.95;;;18.00;96.50;;;;;;5044171;28;20393;-53
2021/07/27 04:04:07;;;;;;;38.33;24.38;;;18.00;96.60;;;;;;5050807;28;20055;-52
2021/07/27 04:06:33;;;;;;;33.38;23.73;;;17.90;96.60;;;;;;5038330;28;20049;-54
2021/07/27 04:08:58;;;;;;;35.30;24.60;;;17.90;96.60;;;;;;5051721;28;20061;-50
2021/07/27 04:11:24;;;;;;;40.00;23.20;;;17.90;96.60;;;;;;5038769;28;20034;-54
2021/07/27 04:13:50;;;;;;;38.08;23.58;;;17.90;96.50;;;;;;5051064;28;20037;-53
2021/07/27 04:16:16;;;;;;;33.92;23.38;;;17.90;96.50;;;;;;5040060;28;20044;-53
2021/07/27 04:18:42;;;;;;;39.60;24.95;;;17.90;96.50;;;;;;5045658;28;20430;-50
2021/07/27 04:21:10;;;;;;;34.55;24.13;;;17.80;96.40;;;;;;5033439;28;20468;-50
2021/07/27 04:23:36;;;;;;;36.33;24.20;;;17.80;96.40;;;;;;5051897;28;20045;-52
2021/07/27 04:26:02;;;;;;;42.28;26.23;;;17.80;96.40;;;;;;5041931;28;20049;-53
2021/07/27 04:28:28;;;;;;;44.30;26.77;;;17.80;96.40;;;;;;5049878;28;20049;-53
2021/07/27 04:30:54;;;;;;;42.50;26.33;;;17.70;96.30;;;;;;5044139;28;20148;-54
2021/07/27 04:33:28;;;;;;;41.10;27.40;;;17.70;96.30;;;;;;5047400;28;20090;-53
2021/07/27 04:35:54;;;;;;;44.22;28.55;;;17.70;96.30;;;;;;5036925;28;20041;-53
2021/07/27 04:38:27;;;;;;;47.17;28.40;;;17.70;96.30;;;;;;5049501;28;20057;-53
2021/07/27 04:40:53;;;;;;;46.35;28.48;;;17.70;96.30;;;;;;5035046;28;20052;-54
2021/07/27 04:43:20;;;;;;;48.72;30.38;;;17.70;96.30;;;;;;5050089;28;20045;-53
2021/07/27 04:45:46;;;;;;;44.80;29.05;;;17.70;96.30;;;;;;5025173;28;20136;-52
2021/07/27 04:48:12;;;;;;;45.97;29.05;;;17.70;96.20;;;;;;5042090;28;20513;-52
2021/07/27 04:50:39;;;;;;;51.53;30.45;;;17.60;96.20;;;;;;5048730;28;20037;-52
2021/07/27 04:53:10;;;;;;;47.50;30.52;;;17.60;96.30;;;;;;5047274;28;20048;-53
2021/07/27 04:55:37;;;;;;;48.07;30.50;;;17.70;96.30;;;;;;5038344;28;20048;-50
2021/07/27 04:58:06;;;;;;;53.33;30.90;;;17.60;96.30;;;;;;5054233;28;20290;-55
2021/07/27 05:00:32;;;;;;;57.92;32.28;;;17.70;96.30;;;;;;5039514;28;20065;-52
2021/07/27 05:02:58;;;;;;;56.28;32.45;;;17.70;96.30;;;;;;5051034;28;20079;-53
2021/07/27 05:05:25;;;;;;;65.05;35.17;;;17.60;96.30;;;;;;5050513;28;20087;-54
2021/07/27 05:07:51;;;;;;;54.85;33.47;;;17.60;96.20;;;;;;5033586;28;20501;-52
2021/07/27 05:10:18;;;;;;;67.30;36.92;;;17.60;96.20;;;;;;5041345;28;20052;-53
2021/07/27 05:12:44;;;;;;;77.82;37.75;;;17.70;96.20;;;;;;5035831;28;20067;-52
2021/07/27 05:15:09;;;;;;;62.40;36.00;;;17.60;96.20;;;;;;5033771;28;20037;-50
2021/07/27 05:17:36;;;;;;;69.35;37.42;;;17.60;96.30;;;;;;5045462;28;20547;-51
2021/07/27 05:20:02;;;;;;;66.72;37.00;;;17.70;96.20;;;;;;5033094;28;20175;-49
2021/07/27 05:22:28;;;;;;;66.25;37.03;;;17.70;96.20;;;;;;5039563;28;20043;-54
2021/07/27 05:24:54;;;;;;;62.42;37.60;;;17.70;96.20;;;;;;5039773;28;20033;-51
2021/07/27 05:27:22;;;;;;;71.18;39.53;;;17.70;96.10;;;;;;5034619;28;20452;-52
2021/07/27 05:29:53;;;;;;;67.38;38.38;;;17.70;96.00;;;;;;5041832;28;20060;-53
2021/07/27 05:32:19;;;;;;;72.65;41.30;;;17.70;96.00;;;;;;5041009;28;20033;-53
2021/07/27 05:34:44;;;;;;;74.10;39.10;;;17.70;96.00;;;;;;5040704;28;20037;-51
2021/07/27 05:37:10;;;;;;;78.70;40.65;;;17.70;96.00;;;;;;5037763;28;20444;-49
2021/07/27 05:39:36;;;;;;;71.13;39.92;;;17.70;96.00;;;;;;5041656;28;20112;-52
2021/07/27 05:42:02;;;;;;;73.53;42.15;;;17.80;96.00;;;;;;5043186;28;20037;-52
2021/07/27 05:44:32;;;;;;;73.22;39.92;;;17.80;96.00;;;;;;5044581;28;20041;-51
2021/07/27 05:47:00;;;;;;;70.05;41.78;;;17.90;96.00;;;;;;5030113;28;20041;-52
2021/07/27 05:49:26;;;;;;;76.85;41.60;;;17.90;95.90;;;;;;5039311;28;20042;-50
2021/07/27 05:51:53;;;;;;;73.25;42.17;;;17.90;95.90;;;;;;5038474;28;20048;-50
2021/07/27 05:54:20;;;;;;;73.25;39.95;;;17.90;95.90;;;;;;5037724;28;20041;-51
2021/07/27 05:56:49;;;;;;;71.53;41.35;;;18.00;95.90;;;;;;5049181;28;20484;-49
2021/07/27 05:59:16;;;;;;;82.60;44.35;;;18.00;95.90;;;;;;5033586;28;20527;-51
2021/07/27 06:01:43;;;;;;;72.70;41.85;;;18.00;95.80;;;;;;5039201;28;20037;-52
2021/07/27 06:04:10;;;;;;;74.78;41.38;;;18.00;95.80;;;;;;5043866;28;20025;-51
2021/07/27 06:06:36;;;;;;;73.85;41.42;;;18.00;95.70;;;;;;5039752;28;20040;-53
2021/07/27 06:09:06;;;;;;;81.07;42.95;;;18.00;95.80;;;;;;5046609;28;21403;-53
2021/07/27 06:11:33;;;;;;;84.00;44.22;;;18.00;95.80;;;;;;5037818;28;20116;-53
2021/07/27 06:14:00;;;;;;;81.47;44.78;;;18.00;95.80;;;;;;5048530;28;20476;-52
2021/07/27 06:16:26;;;;;;;94.53;47.22;;;18.00;95.80;;;;;;5045803;28;20164;-52
2021/07/27 06:18:52;;;;;;;79.00;43.78;;;18.10;95.70;;;;;;5043877;28;20034;-50
2021/07/27 06:21:18;;;;;;;82.97;46.17;;;18.10;95.70;;;;;;5047604;28;20067;-51
2021/07/27 06:23:45;;;;;;;83.65;47.30;;;18.10;95.60;;;;;;5040869;28;20041;-52
2021/07/27 06:26:11;;;;;;;89.20;47.10;;;18.20;95.50;;;;;;5045868;28;20079;-50
2021/07/27 06:28:37;;;;;;;82.93;45.58;;;18.20;95.50;;;;;;5030529;28;20038;-52
2021/07/27 06:31:10;;;;;;;76.90;42.90;;;18.20;95.50;;;;;;5047515;28;20037;-52
2021/07/27 06:33:41;;;;;;;77.82;43.75;;;18.20;95.30;;;;;;5046037;28;20044;-55
2021/07/27 06:36:07;;;;;;;80.13;45.22;;;18.20;95.20;;;;;;5042864;28;20541;-54
2021/07/27 06:38:33;;;;;;;75.38;44.15;;;18.30;95.10;;;;;;5034058;28;20053;-50
2021/07/27 06:40:59;;;;;;;79.50;43.47;;;18.30;95.10;;;;;;5031794;28;20068;-51
2021/07/27 06:43:27;;;;;;;72.70;44.63;;;18.30;94.90;;;;;;5042141;28;20501;-53
2021/07/27 06:45:56;;;;;;;71.00;42.33;;;18.30;94.80;;;;;;5033594;28;20033;-51
2021/07/27 06:48:23;;;;;;;78.15;43.78;;;18.30;94.80;;;;;;5041544;28;20044;-51
2021/07/27 06:50:53;;;;;;;76.22;45.22;;;18.30;94.80;;;;;;5049645;28;20065;-48
2021/07/27 06:53:19;;;;;;;77.97;44.38;;;18.30;94.70;;;;;;5049468;28;20033;-51
2021/07/27 06:55:46;;;;;;;86.70;45.53;;;18.30;94.80;;;;;;5052609;28;20041;-48
2021/07/27 06:58:12;;;;;;;81.28;45.97;;;18.30;94.80;;;;;;5045356;28;20033;-50
2021/07/27 07:00:39;;;;;;;72.93;41.80;;;18.30;94.90;;;;;;5047552;28;20049;-50
2021/07/27 07:03:08;;;;;;;76.68;45.95;;;18.40;94.90;;;;;;5052698;28;20124;-52
2021/07/27 07:05:35;;;;;;;74.80;45.30;;;18.40;94.80;;;;;;5050605;28;20409;-51
2021/07/27 07:08:01;;;;;;;70.78;42.47;;;18.40;94.70;;;;;;5055283;28;20036;-52
2021/07/27 07:10:27;;;;;;;80.60;44.97;;;18.50;94.60;;;;;;5053611;28;20525;-50
2021/07/27 07:12:53;;;;;;;71.70;43.05;;;18.50;94.70;;;;;;5054338;28;20051;-49
2021/07/27 07:15:19;;;;;;;70.97;42.97;;;18.60;94.70;;;;;;5033696;28;20413;-50
2021/07/27 07:17:45;;;;;;;69.32;44.00;;;18.60;94.60;;;;;;5032791;28;20103;-52
2021/07/27 07:20:12;;;;;;;74.43;45.55;;;18.70;94.60;;;;;;5033468;28;20029;-51
2021/07/27 07:22:37;;;;;;;65.45;40.45;;;18.80;94.50;;;;;;5041662;28;20108;-51
2021/07/27 07:25:04;;;;;;;76.40;44.75;;;18.80;94.40;;;;;;5050040;28;20124;-53
2021/07/27 07:27:30;;;;;;;68.57;42.25;;;18.80;94.10;;;;;;5025499;28;20041;-51
2021/07/27 07:29:59;;;;;;;71.40;43.97;;;18.80;93.80;;;;;;5038612;28;20049;-49
2021/07/27 07:32:25;;;;;;;68.68;44.55;;;18.90;93.80;;;;;;5043937;28;20048;-52
2021/07/27 07:34:51;;;;;;;65.85;42.00;;;19.00;93.60;;;;;;5039765;28;20038;-52
2021/07/27 07:37:17;;;;;;;61.47;40.75;;;19.20;93.60;;;;;;5046262;28;20049;-49
2021/07/27 07:39:43;;;;;;;64.35;40.20;;;19.30;93.20;;;;;;5026768;28;20068;-50
2021/07/27 07:42:08;;;;;;;52.47;36.30;;;19.40;92.90;;;;;;5049152;28;20525;-49
2021/07/27 07:44:34;;;;;;;53.33;36.60;;;19.50;92.50;;;;;;5047941;28;20076;-50
2021/07/27 07:47:01;;;;;;;51.60;37.05;;;19.60;91.70;;;;;;5053287;28;20052;-49
2021/07/27 07:49:26;;;;;;;54.60;36.63;;;19.70;92.00;;;;;;5035817;28;20053;-51
2021/07/27 07:51:54;;;;;;;53.45;37.15;;;19.70;92.00;;;;;;5047460;28;20041;-52
2021/07/27 07:54:19;;;;;;;47.80;34.50;;;19.70;92.00;;;;;;5043041;28;20303;-52
2021/07/27 07:56:46;;;;;;;52.92;35.92;;;19.60;91.90;;;;;;5039930;28;20523;-51
2021/07/27 07:59:12;;;;;;;51.63;35.60;;;19.60;91.80;;;;;;5041989;28;20044;-52
2021/07/27 08:01:37;;;;;;;48.58;34.45;;;19.60;91.70;;;;;;5039919;28;20049;-51
2021/07/27 08:04:04;;;;;;;46.60;34.42;;;19.60;91.60;;;;;;5032009;28;20036;-53
2021/07/27 08:06:31;;;;;;;53.42;36.22;;;19.60;91.40;;;;;;5048524;28;20040;-52
2021/07/27 08:08:57;;;;;;;53.75;36.22;;;19.50;91.30;;;;;;5032540;28;20053;-52
2021/07/27 08:11:23;;;;;;;52.90;37.00;;;19.50;91.50;;;;;;5043651;28;20037;-48
2021/07/27 08:13:52;;;;;;;49.25;35.85;;;19.60;91.30;;;;;;5047014;28;20048;-49
2021/07/27 08:16:18;;;;;;;48.92;34.33;;;19.70;91.20;;;;;;5045761;28;20048;-52
2021/07/27 08:18:43;;;;;;;48.67;34.45;;;19.80;90.60;;;;;;5048418;28;20045;-53
2021/07/27 08:21:10;;;;;;;51.17;36.38;;;19.90;90.50;;;;;;5034662;28;20041;-51
2021/07/27 08:23:40;;;;;;;46.65;33.83;;;19.90;90.40;;;;;;5052702;28;20039;-51
2021/07/27 08:26:05;;;;;;;42.88;33.28;;;20.00;90.50;;;;;;5041062;28;20516;-48
2021/07/27 08:28:31;;;;;;;43.63;31.52;;;20.00;90.50;;;;;;5038701;28;20168;-52
2021/07/27 08:30:57;;;;;;;40.13;30.15;;;20.00;90.50;;;;;;5050493;28;20041;-51
2021/07/27 08:33:23;;;;;;;37.17;27.00;;;20.00;90.50;;;;;;5048270;28;20041;-53
2021/07/27 08:35:52;;;;;;;37.13;27.60;;;20.10;90.20;;;;;;5039811;28;20108;-50
2021/07/27 08:38:17;;;;;;;36.95;28.00;;;20.00;89.70;;;;;;5031289;28;20494;-51
2021/07/27 08:40:47;;;;;;;36.50;27.00;;;20.10;89.90;;;;;;5039332;28;20049;-51
2021/07/27 08:43:14;;;;;;;33.72;26.63;;;20.00;89.50;;;;;;5040629;28;20131;-53
2021/07/27 08:45:39;;;;;;;34.22;26.45;;;19.90;89.30;;;;;;5030193;28;20120;-49
2021/07/27 08:48:07;;;;;;;32.88;25.17;;;19.90;90.00;;;;;;5032245;28;20128;-50
2021/07/27 08:50:35;;;;;;;32.70;24.67;;;19.90;90.20;;;;;;5045328;28;20044;-49
2021/07/27 08:53:01;;;;;;;32.05;22.67;;;19.90;90.20;;;;;;5037607;28;20044;-49
2021/07/27 08:55:28;;;;;;;27.10;21.90;;;20.00;90.20;;;;;;5016764;28;20184;-49
2021/07/27 08:57:59;;;;;;;32.65;23.23;;;20.00;90.20;;;;;;5041104;28;20069;-53
2021/07/27 09:00:33;;;;;;;27.80;22.15;;;20.00;90.10;;;;;;5050588;28;20037;-48
2021/07/27 09:03:18;;;;;;;29.77;21.77;;;20.00;90.00;;;;;;5038081;28;20037;-51
2021/07/27 09:05:45;;;;;;;26.75;21.05;;;20.00;90.10;;;;;;5043937;28;20039;-51
2021/07/27 09:08:13;;;;;;;26.80;19.25;;;20.10;90.20;;;;;;5027758;28;20041;-52
2021/07/27 09:10:41;;;;;;;30.35;19.77;;;20.20;89.70;;;;;;5041951;28;20390;-51
2021/07/27 09:13:09;;;;;;;23.00;18.85;;;20.20;89.40;;;;;;5041578;28;20037;-52
2021/07/27 09:15:37;;;;;;;27.88;18.50;;;20.30;88.80;;;;;;5035024;28;20045;-54
2021/07/27 09:18:07;;;;;;;26.05;18.33;;;20.30;88.60;;;;;;5032008;28;20069;-51
2021/07/27 09:20:35;;;;;;;23.33;17.42;;;20.40;88.30;;;;;;5043105;28;20044;-51
2021/07/27 09:23:06;;;;;;;24.73;19.13;;;20.40;87.10;;;;;;5046022;28;20037;-50
2021/07/27 09:25:33;;;;;;;25.27;19.23;;;20.40;87.20;;;;;;5042232;28;20037;-52
2021/07/27 09:28:10;;;;;;;26.33;18.75;;;20.40;87.50;;;;;;5037569;28;20044;-49
2021/07/27 09:30:38;;;;;;;28.60;20.25;;;20.40;86.80;;;;;;5023180;28;20053;-53
2021/07/27 09:33:06;;;;;;;27.77;19.67;;;20.30;87.60;;;;;;5031181;28;20257;-51
2021/07/27 09:35:32;;;;;;;27.75;20.05;;;20.30;88.00;;;;;;5050754;28;20041;-50
2021/07/27 09:38:16;;;;;;;26.45;20.70;;;20.30;88.40;;;;;;5050042;28;20106;-52
2021/07/27 09:40:49;;;;;;;28.30;21.33;;;20.30;88.70;;;;;;5043818;28;20488;-54
2021/07/27 09:43:19;;;;;;;27.85;21.08;;;20.30;88.80;;;;;;5042915;28;20461;-52
2021/07/27 09:45:47;;;;;;;27.10;20.30;;;20.30;88.90;;;;;;5041758;28;20075;-52
2021/07/27 09:48:17;;;;;;;28.75;21.17;;;20.30;89.00;;;;;;5048545;28;20034;-49
2021/07/27 09:50:49;;;;;;;26.55;21.95;;;20.40;88.90;;;;;;5033596;28;20072;-49
2021/07/27 09:53:16;;;;;;;26.48;21.98;;;20.50;88.50;;;;;;5039756;28;20079;-52
2021/07/27 09:55:42;;;;;;;26.40;20.58;;;20.70;88.20;;;;;;5041071;28;20135;-50
2021/07/27 09:58:08;;;;;;;28.25;21.02;;;20.70;88.30;;;;;;5040524;28;21265;-49
2021/07/27 10:00:50;;;;;;;26.55;21.30;;;20.80;88.40;;;;;;5045478;28;20452;-51
2021/07/27 10:03:21;;;;;;;27.00;21.20;;;20.90;87.70;;;;;;5026927;28;20037;-54
2021/07/27 10:05:52;;;;;;;;;;;20.90;86.70;;;;;;5038241;28;20134;-51
2021/07/27 10:08:36;;;;;;;27.98;21.38;;;21.00;88.40;;;;;;5041031;28;20471;-49
2021/07/27 10:11:09;;;;;;;29.33;21.55;;;21.00;87.40;;;;;;5043330;28;20331;-55
2021/07/27 10:13:36;;;;;;;26.90;21.58;;;21.00;87.50;;;;;;5046491;28;20476;-52
2021/07/27 10:16:02;;;;;;;29.90;23.15;;;20.90;87.80;;;;;;5043885;28;20033;-50
2021/07/27 10:18:35;;;;;;;26.70;22.63;;;21.00;88.00;;;;;;5044683;28;20037;-52
2021/07/27 10:21:25;;;;;;;29.55;23.05;;;21.10;88.30;;;;;;5021769;28;20044;-52
2021/07/27 10:23:59;;;;;;;31.35;23.40;;;21.20;89.20;;;;;;5040808;28;20032;-51
2021/07/27 10:26:27;;;;;;;27.85;23.05;;;21.50;88.00;;;;;;5026606;28;20052;-50
2021/07/27 10:28:57;;;;;;;27.02;21.48;;;21.60;86.40;;;;;;5046211;28;20040;-53
2021/07/27 10:31:54;;;;;;;27.88;21.75;;;21.80;85.50;;;;;;5051293;28;20512;-53
2021/07/27 10:34:34;;;;;;;28.08;22.20;;;21.90;84.90;;;;;;5044459;28;20049;-51
2021/07/27 10:37:11;;;;;;;25.85;22.30;;;22.10;84.60;;;;;;5052027;28;20048;-53
2021/07/27 10:39:51;;;;;;;26.30;22.40;;;22.20;83.60;;;;;;5022254;28;20072;-52
2021/07/27 10:42:18;;;;;;;26.75;21.63;;;22.10;82.80;;;;;;5043484;28;20040;-49
2021/07/27 10:44:44;;;;;;;27.15;22.83;;;22.00;82.90;;;;;;5050333;28;20037;-53
2021/07/27 10:47:21;;;;;;;27.95;21.83;;;21.90;83.30;;;;;;5024285;28;20053;-53
2021/07/27 10:49:58;;;;;;;29.17;21.13;;;22.00;84.20;;;;;;5047202;28;20036;-51
2021/07/27 10:52:25;;;;;;;28.65;22.42;;;22.20;83.70;;;;;;5046175;28;20147;-51
2021/07/27 10:54:58;;;;;;;27.55;20.25;;;22.40;83.60;;;;;;5028539;28;20044;-53
2021/07/27 10:57:30;;;;;;;20.58;18.38;;;22.70;82.70;;;;;;5040119;28;20061;-48
2021/07/27 10:59:56;;;;;;;23.58;19.58;;;22.80;81.00;;;;;;5048973;28;20052;-50
2021/07/27 11:02:24;;;;;;;22.52;17.98;;;23.10;80.80;;;;;;5041575;28;20426;-51
2021/07/27 11:04:50;;;;;;;25.80;19.08;;;23.20;80.10;;;;;;5047414;28;20066;-50
2021/07/27 11:07:19;;;;;;;28.95;22.25;;;23.20;78.20;;;;;;5016772;28;20048;-49
2021/07/27 11:09:50;;;;;;;28.52;21.67;;;23.10;79.20;;;;;;5045911;28;20037;-49
2021/07/27 11:12:34;;;;;;;26.45;22.05;;;22.90;80.40;;;;;;5047140;28;20494;-52
2021/07/27 11:15:20;;;;;;;27.10;20.63;;;22.70;81.70;;;;;;5046644;28;20037;-49
2021/07/27 11:17:51;;;;;;;24.90;19.45;;;22.60;82.00;;;;;;5036984;28;20045;-49
2021/07/27 11:20:22;;;;;;;23.92;18.80;;;22.60;82.30;;;;;;5045224;28;20120;-52
2021/07/27 11:22:51;;;;;;;20.98;18.67;;;22.50;81.70;;;;;;5040289;28;20044;-50
2021/07/27 11:25:18;;;;;;;24.23;18.55;;;22.50;81.40;;;;;;5040410;28;20402;-50
2021/07/27 11:27:44;;;;;;;26.23;19.45;;;22.40;81.20;;;;;;5041985;28;20401;-50
2021/07/27 11:30:10;;;;;;;22.60;18.40;;;22.40;81.00;;;;;;5047565;28;20033;-54
2021/07/27 11:32:50;;;;;;;22.85;17.63;;;22.30;81.10;;;;;;5043114;28;20041;-52
2021/07/27 11:35:18;;;;;;;24.83;17.85;;;22.30;80.70;;;;;;5036639;28;20083;-52
2021/07/27 11:37:45;;;;;;;21.63;17.75;;;22.30;81.60;;;;;;5038889;28;20037;-53
2021/07/27 11:40:23;;;;;;;21.80;18.70;;;22.40;82.50;;;;;;5021433;28;20166;-51
2021/07/27 11:43:05;;;;;;;22.50;19.45;;;22.40;79.50;;;;;;5026072;28;20060;-53
2021/07/27 11:45:42;;;;;;;21.90;18.45;;;22.30;80.10;;;;;;5040690;28;20491;-53
2021/07/27 11:48:09;;;;;;;21.38;17.40;;;22.20;80.80;;;;;;5042595;28;20040;-49
2021/07/27 11:50:40;;;;;;;24.48;17.83;;;22.20;81.10;;;;;;5037201;28;20056;-49
2021/07/27 11:53:21;;;;;;;20.50;16.70;;;22.20;79.80;;;;;;5033638;28;20038;-52
2021/07/27 11:55:47;;;;;;;19.23;15.70;;;22.30;80.80;;;;;;5034532;28;20292;-51
2021/07/27 11:58:23;;;;;;;19.60;17.27;;;22.50;80.90;;;;;;5036900;28;20414;-50
2021/07/27 12:00:58;;;;;;;18.95;14.90;;;22.50;80.20;;;;;;5038934;28;20040;-53
2021/07/27 12:03:24;;;;;;;20.52;15.98;;;22.60;79.50;;;;;;5046424;28;20068;-52
2021/07/27 12:05:51;;;;;;;22.35;17.85;;;22.60;79.60;;;;;;5034042;28;20168;-51
2021/07/27 12:08:17;;;;;;;23.15;17.88;;;22.60;79.80;;;;;;5038998;28;20569;-53
2021/07/27 12:10:43;;;;;;;22.38;17.00;;;22.60;80.20;;;;;;5037402;28;20045;-49
2021/07/27 12:13:09;;;;;;;20.42;18.15;;;22.50;80.40;;;;;;5050984;28;20044;-49
2021/07/27 12:15:35;;;;;;;22.83;16.63;;;22.40;80.80;;;;;;5030390;28;20585;-51
2021/07/27 12:18:00;;;;;;;20.05;16.35;;;22.30;81.00;;;;;;5045339;28;20048;-51
2021/07/27 12:20:26;;;;;;;19.48;16.92;;;22.30;81.40;;;;;;5034038;28;20033;-54
2021/07/27 12:22:51;;;;;;;21.00;16.25;;;22.30;81.30;;;;;;5036891;28;20071;-51
2021/07/27 12:25:17;;;;;;;20.52;16.15;;;22.30;81.40;;;;;;5038777;28;20428;-53
2021/07/27 12:27:44;;;;;;;19.33;16.17;;;22.30;81.40;;;;;;5045128;28;20524;-54
2021/07/27 12:30:11;;;;;;;25.85;16.15;;;22.40;81.50;;;;;;5044965;28;20044;-52
2021/07/27 12:32:37;;;;;;;17.70;15.02;;;22.60;81.10;;;;;;5032309;28;20045;-53
2021/07/27 12:35:04;;;;;;;22.35;15.35;;;22.80;80.60;;;;;;5037969;28;20047;-51
2021/07/27 12:37:30;;;;;;;22.95;16.30;;;22.80;80.40;;;;;;5047454;28;20386;-52
2021/07/27 12:39:56;;;;;;;22.67;17.52;;;22.70;80.10;;;;;;5047907;28;20063;-52
2021/07/27 12:42:22;;;;;;;21.10;17.02;;;22.60;80.00;;;;;;5041755;28;20519;-53
2021/07/27 12:44:48;;;;;;;22.00;17.35;;;22.50;80.40;;;;;;5044927;28;20055;-54
2021/07/27 12:47:13;;;;;;;18.85;16.48;;;22.40;80.70;;;;;;5042098;28;20120;-51
2021/07/27 12:49:39;;;;;;;22.98;17.50;;;22.40;81.20;;;;;;5033898;28;20125;-51
2021/07/27 12:52:10;;;;;;;23.38;18.02;;;22.60;80.90;;;;;;5041863;28;20059;-54
2021/07/27 12:54:38;;;;;;;19.15;15.65;;;22.90;79.80;;;;;;5044781;28;20056;-53
2021/07/27 12:57:05;;;;;;;21.42;17.75;;;23.10;79.20;;;;;;5040112;28;20051;-53
2021/07/27 12:59:32;;;;;;;20.63;16.55;;;23.20;77.80;;;;;;5044855;28;20053;-52
2021/07/27 13:01:58;;;;;;;21.42;17.15;;;23.40;76.00;;;;;;5040767;28;20413;-54